Airfield :
LOGIN :

Register | Disclaimer

   EN    FR    IT 

 










Legend :    VFR   Marginal VFR   IFR   Intensive IFR   Very Intensive IFR
Visi :
Ceiling :
>= 8 km
>= 3000ft
5 to 8 km
1000 to 3000 ft
1500m to 5 km
500 to 1000 ft
800 to 1500m
200 to 500 ft
< 800m
< 200 ft
Symbols :   Thunderstorms  Fog  Heavy snow  Heavy precipitations  Wind > 20 kt
SIGMETs :     Misc.  Thunderstorms  Icing  Turbulence  Mountain Waves  Volcanic Ashes






- Airport Elevation : 2697 ft
- IATA code : BLJ


DABT - Batna

CURRENT METAR :
  • 290800Z 30016KT 9999 FEW020 FEW023CB BKN026 09/03 Q1016

EXPIRED METARs :
  • 290700Z 28011KT 9999 FEW013 FEW023CB BKN026 07/04 Q1016
  • 290600Z 29012KT 9999 FEW020 FEW023CB SCT026 07/03 Q1015
  • 290500Z 32021KT 9999 FEW020 FEW023CB BKN026 08/03 Q1014

TAF TAF DABT
Valid from the 29 at 05:00 until the 30 at 05:00 UTC


290500Z 2905/3005 28013KT 9999 FEW030
TEMPO 2906/2915 28020G35KT FEW026CB
TEMPO 2906/2912 4000 RA FEW020CB



MET'MAP, your aeronautical weather chart ! - Copyright ORBIFLY December 2007 - Disclaimer

ORBIFLY MET'MAP TEAM :

Programming & Development : Alexandra Zaïnal
Original concept : Baudouin d'Aumeries
Technical & hardware support : Manuel Goepfert
Assistance : Marc-Olivier Méhu




SOURCES & CREDITS :

   NOAA